Time;durP1;ratioP1;P1;durP2;ratioP2;P2;SDS_P1;SDS_P2;PMS_P1;PMS_P2;Temp;Humidity;BMP_temperature;BMP_pressure;BME280_temperature;BME280_humidity;BME280_pressure;Samples;Min_cycle;Max_cycle;Signal;HPM_P1;HPM_P2
2021/11/21 00:00:39;;;;;;;38.35;25.60;;;5.30;84.00;;;3.55;95.07;96030.13;4969025;28;20485;-64
2021/11/21 00:03:05;;;;;;;38.28;24.58;;;5.30;84.00;;;3.54;95.31;96019.88;4921348;28;20039;-65
2021/11/21 00:05:31;;;;;;;38.13;25.58;;;5.40;84.10;;;3.53;95.26;96019.06;4951859;28;20510;-65
2021/11/21 00:07:57;;;;;;;33.35;23.55;;;5.30;83.80;;;3.50;94.78;96019.34;4936479;28;20084;-65
2021/11/21 00:10:22;;;;;;;37.60;23.73;;;5.20;83.90;;;3.48;95.11;96016.09;4935699;28;20094;-65
2021/11/21 00:12:48;;;;;;;37.70;24.38;;;5.20;83.90;;;3.43;95.15;96012.31;4952173;28;20109;-65
2021/11/21 00:15:14;;;;;;;38.25;24.60;;;5.30;84.00;;;3.44;95.13;96009.56;4937207;28;20054;-65
2021/11/21 00:17:40;;;;;;;35.15;23.63;;;5.30;83.80;;;3.44;95.23;96001.75;4951495;28;20515;-65
2021/11/21 00:20:06;;;;;;;34.47;22.85;;;5.30;83.80;;;3.43;94.73;96002.72;4936641;28;20039;-65
2021/11/21 00:22:35;;;;;;;36.00;22.60;;;5.20;83.70;;;3.35;95.24;95997.41;4939263;28;20365;-65
2021/11/21 00:25:01;;;;;;;34.90;23.00;;;5.00;84.20;;;3.25;94.71;95986.28;4941006;28;20085;-65
2021/11/21 00:27:27;;;;;;;36.30;21.83;;;4.80;84.60;;;3.21;95.03;95987.53;4955786;28;20046;-65
2021/11/21 00:29:54;;;;;;;34.40;21.50;;;4.80;84.80;;;3.18;95.49;95982.63;4972261;28;20038;-65
2021/11/21 00:32:20;;;;;;;32.60;21.48;;;4.90;84.70;;;3.17;95.56;95973.19;4955212;28;20101;-65
2021/11/21 00:34:47;;;;;;;42.85;22.33;;;4.90;84.50;;;3.14;95.37;95973.47;4940077;28;20509;-65
2021/11/21 00:37:14;;;;;;;39.20;23.55;;;4.90;84.50;;;3.10;95.43;95974.72;4939509;28;20035;-64
2021/11/21 00:39:39;;;;;;;32.80;21.70;;;4.90;85.00;;;3.08;95.97;95965.31;4939591;28;20126;-65
2021/11/21 00:42:05;;;;;;;35.33;22.10;;;4.90;85.10;;;3.08;95.94;95952.31;4955627;28;20031;-65
2021/11/21 00:44:31;;;;;;;33.17;21.27;;;4.90;85.00;;;3.04;96.11;95950.97;4955392;28;20118;-65
2021/11/21 00:46:57;;;;;;;30.75;20.10;;;4.80;85.10;;;3.00;95.79;95943.63;4911643;29;20372;-65
2021/11/21 00:49:22;;;;;;;26.35;18.05;;;4.70;85.10;;;2.96;95.89;95944.88;4952281;28;20027;-65
2021/11/21 00:51:49;;;;;;;29.05;18.63;;;4.60;84.80;;;2.88;95.64;95940.38;4970068;28;20023;-65
2021/11/21 00:54:25;;;;;;;27.20;17.92;;;4.40;84.90;;;2.81;95.81;95939.34;4952870;28;20046;-64
2021/11/21 00:56:51;;;;;;;23.42;16.85;;;4.40;85.30;;;2.74;95.75;95933.09;4923868;28;20063;-65
2021/11/21 00:59:19;;;;;;;25.20;17.63;;;4.30;85.40;;;2.67;95.86;95926.84;4955080;28;20037;-64
2021/11/21 01:01:49;;;;;;;24.88;17.40;;;4.30;85.40;;;2.68;95.86;95926.69;4955739;28;20041;-65
2021/11/21 01:04:15;;;;;;;25.55;17.25;;;4.40;85.10;;;2.67;96.32;95922.44;4919606;29;20039;-65
2021/11/21 01:06:40;;;;;;;25.58;17.67;;;4.50;85.10;;;2.63;96.01;95920.28;4936811;28;20035;-65
2021/11/21 01:09:06;;;;;;;25.85;17.20;;;4.40;85.40;;;2.62;95.91;95919.47;4971896;28;20046;-65
2021/11/21 01:11:32;;;;;;;27.77;18.60;;;4.40;85.30;;;2.62;96.26;95916.06;4960382;28;20031;-65
2021/11/21 01:13:58;;;;;;;27.83;17.63;;;4.40;85.30;;;2.65;96.30;95920.97;4955126;28;20608;-65
2021/11/21 01:16:23;;;;;;;27.65;18.20;;;4.50;85.10;;;2.64;96.06;95916.75;4971704;28;20116;-65
2021/11/21 01:18:49;;;;;;;28.65;18.70;;;4.50;85.10;;;2.66;96.49;95914.81;4970773;28;20509;-65
2021/11/21 01:21:15;;;;;;;29.02;20.20;;;4.50;85.40;;;2.64;96.80;95911.53;4954907;28;20505;-64
2021/11/21 01:23:41;;;;;;;34.03;19.52;;;4.50;85.70;;;2.64;97.17;95911.53;4954192;28;20551;-64
2021/11/21 01:26:06;;;;;;;32.45;19.80;;;4.50;85.70;;;2.60;96.90;95908.41;4954877;28;20585;-65
2021/11/21 01:28:32;;;;;;;33.50;20.05;;;4.40;86.00;;;2.61;97.48;95906.66;4944133;28;20043;-64
2021/11/21 01:30:58;;;;;;;45.85;20.35;;;4.40;86.10;;;2.59;97.50;95900.78;4954597;28;20109;-65
2021/11/21 01:33:24;;;;;;;34.10;18.85;;;4.40;86.30;;;2.55;97.79;95907.22;4937502;28;20034;-65
2021/11/21 01:35:49;;;;;;;34.60;18.48;;;4.20;86.50;;;2.51;97.40;95906.72;4954676;28;20053;-64
2021/11/21 01:38:15;;;;;;;39.08;16.60;;;4.20;86.50;;;2.50;97.60;95899.06;4936591;23;20083;-67
2021/11/21 01:40:41;;;;;;;28.40;16.85;;;4.30;86.00;;;2.49;97.55;95900.00;4908679;29;20130;-67
2021/11/21 01:43:07;;;;;;;28.38;16.30;;;4.40;85.80;;;2.46;97.44;95901.91;4932137;28;20036;-68
2021/11/21 01:45:33;;;;;;;49.22;15.90;;;4.20;86.10;;;2.45;97.21;95895.09;4916230;28;20059;-67
2021/11/21 01:47:59;;;;;;;54.20;15.77;;;4.20;85.60;;;2.34;97.20;95900.47;4913712;29;20024;-67
2021/11/21 01:50:29;;;;;;;55.13;16.25;;;3.90;86.40;;;2.22;97.86;95888.63;4897622;29;20134;-67
2021/11/21 01:52:55;;;;;;;31.13;15.27;;;3.80;86.90;;;2.21;97.54;95889.59;4913768;29;20449;-67
2021/11/21 01:55:21;;;;;;;44.38;16.15;;;3.90;87.00;;;2.23;97.84;95889.44;4913880;28;20299;-67
2021/11/21 01:57:47;;;;;;;83.18;16.45;;;4.10;86.90;;;2.22;98.27;95880.03;4897454;29;20441;-67
2021/11/21 02:00:14;;;;;;;56.03;18.00;;;4.00;86.70;;;2.17;98.32;95880.47;4912939;29;20080;-67
2021/11/21 02:02:40;;;;;;;46.58;18.20;;;3.80;87.30;;;2.18;98.53;95882.09;4912651;29;20024;-67
2021/11/21 02:05:07;;;;;;;53.38;18.10;;;4.00;87.40;;;2.19;98.83;95886.34;4897564;29;20059;-67
2021/11/21 02:07:32;;;;;;;38.28;18.70;;;4.00;87.30;;;2.21;98.76;95881.00;4897034;28;20526;-67
2021/11/21 02:09:58;;;;;;;47.50;19.13;;;4.10;87.10;;;2.21;99.36;95874.03;4895900;29;20064;-67
2021/11/21 02:12:24;;;;;;;97.13;16.83;;;4.10;87.10;;;2.25;99.46;95875.38;4897360;29;20083;-67
2021/11/21 02:14:50;;;;;;;45.22;17.38;;;4.10;86.80;;;2.25;99.03;95867.59;4912865;29;20044;-67
2021/11/21 02:17:15;;;;;;;95.32;15.98;;;4.10;87.00;;;2.25;99.35;95854.63;4912405;28;20103;-69
2021/11/21 02:19:41;;;;;;;34.42;17.00;;;4.10;86.70;;;2.27;98.97;95852.72;4881376;29;20453;-68
2021/11/21 02:22:07;;;;;;;50.38;15.98;;;4.20;86.70;;;2.28;99.05;95850.94;4912661;29;20394;-68
2021/11/21 02:24:33;;;;;;;35.42;15.73;;;4.10;86.40;;;2.26;98.57;95850.25;4913927;28;20024;-68
2021/11/21 02:26:59;;;;;;;29.33;16.00;;;4.10;86.50;;;2.26;99.13;95851.06;4893769;29;20100;-68
2021/11/21 02:29:26;;;;;;;30.40;14.98;;;4.10;86.40;;;2.29;98.67;95849.97;4912349;28;20036;-68
2021/11/21 02:31:51;;;;;;;21.50;14.23;;;4.20;86.10;;;2.29;98.70;95837.81;4908503;29;20044;-67
2021/11/21 02:34:18;;;;;;;34.90;14.38;;;4.20;85.80;;;2.28;98.74;95836.19;4912226;29;20028;-67
2021/11/21 02:36:44;;;;;;;63.10;13.13;;;4.20;85.30;;;2.25;98.22;95833.84;4879388;29;20036;-68
2021/11/21 02:39:12;;;;;;;31.23;11.88;;;4.10;85.20;;;2.24;97.73;95832.22;4896864;29;20047;-68
2021/11/21 02:41:37;;;;;;;22.77;11.38;;;4.10;84.90;;;2.16;97.68;95819.16;4911350;28;20042;-68
2021/11/21 02:44:03;;;;;;;21.80;12.38;;;4.10;85.10;;;2.18;97.48;95817.25;4881186;29;20115;-68
2021/11/21 02:46:31;;;;;;;39.17;12.32;;;4.10;84.80;;;2.18;97.38;95822.44;4896802;28;20519;-68
2021/11/21 02:48:58;;;;;;;30.00;12.05;;;4.10;84.70;;;2.15;97.87;95802.78;4913734;28;20036;-68
2021/11/21 02:51:23;;;;;;;18.17;12.40;;;4.10;84.80;;;2.17;97.41;95797.44;4911852;28;20044;-68
2021/11/21 02:53:49;;;;;;;18.58;11.98;;;4.10;84.90;;;2.18;97.62;95795.66;4912211;29;20029;-68
2021/11/21 02:56:16;;;;;;;42.58;13.70;;;4.20;85.00;;;2.18;97.76;95780.91;4896345;29;20068;-68
2021/11/21 02:58:43;;;;;;;66.10;12.77;;;4.10;84.90;;;2.18;97.32;95775.72;4896839;29;20043;-68
2021/11/21 03:01:24;;;;;;;25.40;13.10;;;4.10;84.80;;;2.17;98.26;95778.47;4911649;29;20048;-68
2021/11/21 03:03:50;;;;;;;23.13;13.10;;;4.10;85.20;;;2.18;98.08;95772.31;4912845;29;20451;-68
2021/11/21 03:06:16;;;;;;;19.60;13.50;;;4.20;85.10;;;2.18;98.16;95770.53;4916037;29;20413;-68
2021/11/21 03:08:42;;;;;;;65.40;13.60;;;4.20;85.30;;;2.19;98.42;95769.56;4867288;29;20036;-68
2021/11/21 03:11:33;;;;;;;57.55;13.55;;;4.10;84.90;;;2.20;98.29;95757.41;4926095;28;20071;-66
2021/11/21 03:14:01;;;;;;;49.38;12.93;;;4.20;84.80;;;2.18;97.62;95760.16;4881785;29;20032;-67
2021/11/21 03:16:27;;;;;;;68.55;12.98;;;4.20;84.70;;;2.16;97.27;95751.69;4901022;29;20075;-67
2021/11/21 03:18:53;;;;;;;97.70;13.20;;;4.10;84.50;;;2.12;97.24;95752.97;4909042;28;20537;-67
2021/11/21 03:21:19;;;;;;;54.50;13.68;;;3.90;84.70;;;2.06;97.32;95762.16;4911366;28;20068;-67
2021/11/21 03:23:45;;;;;;;16.98;10.27;;;3.90;85.20;;;1.98;97.79;95756.03;4896414;29;20044;-67
2021/11/21 03:26:11;;;;;;;50.22;13.02;;;3.90;85.50;;;2.00;97.70;95741.13;4908369;29;20384;-67
2021/11/21 03:28:36;;;;;;;171.90;13.13;;;3.90;85.40;;;1.96;97.34;95745.81;4905692;29;20055;-67
2021/11/21 03:31:02;;;;;;;87.25;13.05;;;3.70;85.00;;;1.86;97.65;95749.41;4912096;29;20047;-66
2021/11/21 03:33:28;;;;;;;26.63;13.52;;;3.50;85.80;;;1.85;97.24;95748.59;4895305;28;20068;-67
2021/11/21 03:35:54;;;;;;;18.42;12.52;;;3.70;85.90;;;1.84;98.20;95747.78;4895924;29;20127;-67
2021/11/21 03:38:20;;;;;;;28.10;12.70;;;3.80;85.80;;;1.84;98.24;95758.16;4909373;29;20033;-66
2021/11/21 03:40:45;;;;;;;19.45;13.13;;;3.80;85.80;;;1.87;98.55;95743.28;4913139;28;20047;-67
2021/11/21 03:43:11;;;;;;;30.48;12.80;;;3.90;85.90;;;1.86;98.59;95745.03;4896073;29;20056;-67
2021/11/21 03:45:37;;;;;;;30.70;13.13;;;3.90;85.60;;;1.87;98.65;95736.31;4912228;28;20393;-67
2021/11/21 03:48:03;;;;;;;25.25;12.68;;;3.90;85.50;;;1.90;98.28;95736.00;4912249;29;20485;-67
2021/11/21 03:50:29;;;;;;;61.53;11.88;;;4.00;85.30;;;1.90;98.48;95746.38;4892972;29;20504;-67
2021/11/21 03:52:54;;;;;;;112.50;11.15;;;4.00;84.90;;;1.84;98.21;95736.59;4924738;28;20040;-67
2021/11/21 03:55:20;;;;;;;44.15;11.13;;;3.90;84.50;;;1.87;97.97;95738.09;4910861;28;20044;-66
2021/11/21 03:57:47;;;;;;;43.15;10.18;;;3.90;84.60;;;1.82;97.75;95734.16;4915344;29;20131;-67
2021/11/21 04:00:18;;;;;;;62.58;10.45;;;3.80;84.40;;;1.76;97.49;95731.28;4899820;29;20043;-67
2021/11/21 04:02:45;;;;;;;14.15;9.68;;;3.70;84.70;;;1.83;97.28;95747.94;4908491;29;20032;-67
2021/11/21 04:05:11;;;;;;;20.52;10.25;;;3.80;84.80;;;1.80;97.28;95753.38;4920426;28;20510;-66
2021/11/21 04:07:38;;;;;;;18.85;10.70;;;3.70;85.00;;;1.77;97.47;95741.53;4914755;28;20071;-66
2021/11/21 04:10:04;;;;;;;36.40;9.18;;;3.70;85.10;;;1.76;97.92;95745.06;4899640;29;20043;-67
2021/11/21 04:12:30;;;;;;;22.35;7.55;;;3.60;84.50;;;1.74;97.22;95741.00;4899413;29;20071;-66
2021/11/21 04:14:56;;;;;;;29.95;7.90;;;3.70;84.10;;;1.69;97.05;95740.63;4915184;29;20036;-66
2021/11/21 04:17:21;;;;;;;56.95;9.55;;;3.60;83.70;;;1.67;97.06;95735.56;4898700;28;20530;-67
2021/11/21 04:19:47;;;;;;;31.05;8.70;;;3.60;84.00;;;1.66;97.16;95728.75;4899572;29;20127;-67
2021/11/21 04:22:13;;;;;;;38.28;8.38;;;3.60;83.90;;;1.62;96.49;95724.81;4898900;29;20032;-67
2021/11/21 04:24:39;;;;;;;30.80;7.45;;;3.50;83.20;;;1.52;95.91;95726.63;4915556;29;20119;-67
2021/11/21 04:27:05;;;;;;;15.35;7.63;;;3.30;83.50;;;1.50;95.90;95718.19;4899020;29;20038;-67
2021/11/21 04:29:33;;;;;;;49.08;8.27;;;3.40;83.80;;;1.47;95.99;95715.88;4914466;28;20063;-66
2021/11/21 04:31:59;;;;;;;17.70;9.10;;;3.30;83.70;;;1.37;96.09;95717.69;4888855;29;20040;-67
2021/11/21 04:34:25;;;;;;;23.25;9.10;;;3.10;84.50;;;1.34;96.49;95716.19;4880815;29;20032;-67
2021/11/21 04:36:53;;;;;;;50.22;9.10;;;3.20;84.70;;;1.27;96.00;95722.06;4916187;28;20075;-67
2021/11/21 04:39:19;;;;;;;45.63;9.50;;;3.00;85.20;;;1.22;96.92;95710.38;4913872;28;20115;-67
2021/11/21 04:41:45;;;;;;;30.35;9.73;;;3.10;85.10;;;1.23;96.58;95706.81;4901924;29;20032;-67
2021/11/21 04:44:11;;;;;;;49.47;10.18;;;3.10;85.10;;;1.21;96.82;95703.56;4914195;29;20044;-67
2021/11/21 04:46:36;;;;;;;22.65;10.48;;;3.10;85.10;;;1.16;96.88;95703.16;4898625;29;20135;-67
2021/11/21 04:49:04;;;;;;;32.72;10.82;;;3.00;85.60;;;1.15;97.20;95704.13;4914874;29;20028;-67
2021/11/21 04:51:30;;;;;;;54.22;10.23;;;3.00;85.60;;;1.12;97.70;95688.84;4914056;28;20139;-67
2021/11/21 04:53:55;;;;;;;37.17;10.75;;;3.10;85.50;;;1.09;97.55;95678.75;4898772;29;20412;-67
2021/11/21 04:56:22;;;;;;;14.80;10.13;;;3.00;85.80;;;1.11;97.35;95682.03;4898199;29;20044;-67
2021/11/21 04:58:48;;;;;;;29.88;10.88;;;3.00;86.10;;;1.09;97.88;95678.75;4898966;29;20075;-67
2021/11/21 05:01:14;;;;;;;31.83;11.15;;;3.10;86.20;;;1.13;97.69;95685.31;4898449;29;20078;-67
2021/11/21 05:03:39;;;;;;;18.38;11.60;;;3.10;86.10;;;1.14;97.86;95686.13;4917174;28;20067;-67
2021/11/21 05:06:05;;;;;;;21.85;10.57;;;3.10;86.30;;;1.19;98.55;95683.94;4914612;29;20433;-67
2021/11/21 05:08:31;;;;;;;17.05;11.27;;;3.20;86.00;;;1.21;98.58;95677.66;4897929;29;20048;-66
2021/11/21 05:10:57;;;;;;;22.00;10.48;;;3.30;85.90;;;1.17;97.98;95675.50;4914711;29;20036;-66
2021/11/21 05:13:22;;;;;;;15.05;10.10;;;3.30;85.60;;;1.26;98.50;95676.41;4914014;29;20068;-67
2021/11/21 05:15:48;;;;;;;11.73;8.68;;;3.30;85.70;;;1.29;97.88;95674.34;4899301;29;20551;-67
2021/11/21 05:18:14;;;;;;;9.80;7.75;;;3.30;84.40;;;1.28;97.31;95679.66;4902335;29;20078;-66
2021/11/21 05:20:39;;;;;;;11.10;8.30;;;3.30;84.40;;;1.28;96.94;95677.06;4914911;28;20124;-66
2021/11/21 05:23:05;;;;;;;9.43;7.78;;;3.20;83.70;;;1.23;96.64;95678.31;4898619;29;20099;-67
2021/11/21 05:25:31;;;;;;;11.68;8.27;;;3.10;84.10;;;1.26;96.15;95679.00;4897483;28;20039;-67
2021/11/21 05:27:57;;;;;;;9.70;7.50;;;3.10;84.00;;;1.25;96.66;95677.38;4914800;28;20032;-67
2021/11/21 05:30:22;;;;;;;10.27;7.68;;;3.10;84.40;;;1.28;96.23;95671.91;4897844;29;20037;-67
2021/11/21 05:32:49;;;;;;;10.68;8.13;;;3.30;84.10;;;1.28;96.88;95666.72;4914792;28;20078;-67
2021/11/21 05:35:16;;;;;;;14.48;8.52;;;3.30;83.90;;;1.28;96.15;95662.34;4897207;29;20036;-67
2021/11/21 05:37:42;;;;;;;11.05;8.70;;;3.30;83.80;;;1.28;96.51;95657.16;4897254;28;20059;-67
2021/11/21 05:40:09;;;;;;;11.35;8.55;;;3.40;84.00;;;1.29;96.45;95652.78;4897866;29;20040;-67
2021/11/21 05:42:35;;;;;;;11.65;8.55;;;3.30;84.00;;;1.27;96.76;95650.34;4882150;29;20138;-67
2021/11/21 05:45:01;;;;;;;10.88;8.40;;;3.30;84.00;;;1.30;96.08;95651.84;4913628;29;20548;-68
2021/11/21 05:47:28;;;;;;;11.70;8.82;;;3.40;83.80;;;1.32;96.30;95649.91;4912638;28;20508;-68
2021/11/21 05:49:53;;;;;;;17.42;8.35;;;3.40;83.90;;;1.26;96.12;95648.72;4914827;28;20040;-67
2021/11/21 05:52:19;;;;;;;26.48;8.25;;;3.10;83.70;;;1.20;96.28;95655.28;4897193;29;20123;-67
2021/11/21 05:54:45;;;;;;;12.95;7.72;;;3.00;83.60;;;1.14;95.79;95649.88;4912268;29;20069;-67
2021/11/21 05:57:12;;;;;;;10.52;8.55;;;2.90;84.20;;;1.06;95.79;95647.16;4897458;29;20064;-67
2021/11/21 05:59:39;;;;;;;13.55;10.63;;;2.80;84.90;;;1.06;96.59;95637.63;4897916;28;20035;-67
2021/11/21 06:02:05;;;;;;;12.32;9.23;;;3.00;84.40;;;1.04;96.49;95633.53;4897948;29;20040;-67
2021/11/21 06:04:31;;;;;;;19.25;13.60;;;3.00;84.20;;;1.04;96.25;95636.13;4897266;29;20040;-67
2021/11/21 06:06:57;;;;;;;22.77;15.82;;;3.00;84.20;;;1.04;95.86;95633.53;4912839;29;20060;-67
2021/11/21 06:09:22;;;;;;;21.02;16.10;;;3.00;84.30;;;1.08;96.13;95634.88;4912981;28;20381;-67
2021/11/21 06:11:49;;;;;;;14.15;11.25;;;3.10;84.40;;;1.07;96.31;95633.25;4924956;28;20040;-67
2021/11/21 06:14:14;;;;;;;15.48;10.60;;;3.10;83.90;;;1.07;96.49;95626.28;4909164;29;20033;-67
2021/11/21 06:16:40;;;;;;;11.55;8.45;;;3.10;83.80;;;1.08;96.14;95629.69;4908313;28;20182;-67
2021/11/21 06:19:06;;;;;;;9.77;7.78;;;3.10;83.60;;;1.09;96.24;95626.97;4896680;29;20209;-66
2021/11/21 06:21:32;;;;;;;10.75;7.93;;;3.10;83.50;;;1.08;96.00;95622.75;4912241;28;20044;-69
2021/11/21 06:23:58;;;;;;;11.57;7.90;;;3.10;83.40;;;1.04;95.95;95618.81;4909692;29;20137;-66
2021/11/21 06:26:24;;;;;;;10.65;8.45;;;3.10;83.50;;;1.08;96.21;95621.94;4896284;29;20102;-66
2021/11/21 06:28:49;;;;;;;13.52;8.35;;;3.10;83.50;;;1.10;95.83;95628.59;4913830;28;20052;-69
2021/11/21 06:31:15;;;;;;;14.90;8.23;;;3.10;83.40;;;1.11;95.54;95624.22;4896452;29;20088;-65
2021/11/21 06:33:41;;;;;;;13.15;9.10;;;3.10;83.80;;;1.09;96.22;95621.78;4911779;28;20500;-69
2021/11/21 06:36:07;;;;;;;16.52;9.05;;;3.10;83.90;;;1.06;96.12;95616.91;4896738;29;20051;-71
2021/11/21 06:38:33;;;;;;;13.10;9.52;;;3.00;83.80;;;1.00;96.41;95609.69;4881808;29;20119;-68
2021/11/21 06:40:58;;;;;;;20.15;10.43;;;2.90;84.40;;;0.97;95.72;95612.59;4881038;29;20040;-67
2021/11/21 06:43:24;;;;;;;13.13;9.93;;;2.90;84.50;;;0.94;96.47;95607.69;4916046;28;20035;-67
2021/11/21 06:45:50;;;;;;;15.48;9.45;;;2.90;84.60;;;0.93;96.64;95611.25;4896832;29;20107;-67
2021/11/21 06:48:19;;;;;;;29.05;10.00;;;2.80;84.60;;;0.88;96.33;95608.22;4911960;29;20123;-67
2021/11/21 06:50:48;;;;;;;23.08;9.88;;;2.70;84.90;;;0.85;96.42;95613.69;4897104;29;20111;-68
2021/11/21 06:53:13;;;;;;;13.80;9.93;;;2.70;85.00;;;0.88;97.03;95613.41;4896592;29;20092;-68
2021/11/21 06:55:39;;;;;;;26.77;10.40;;;2.90;85.00;;;0.92;97.57;95614.78;4880785;28;20048;-68
2021/11/21 06:58:05;;;;;;;13.10;9.18;;;3.00;84.70;;;0.95;97.30;95624.84;4896243;29;20361;-67
2021/11/21 07:00:31;;;;;;;15.35;10.25;;;3.00;84.70;;;0.98;96.91;95624.56;4899429;29;20039;-68
2021/11/21 07:02:56;;;;;;;26.55;9.70;;;3.10;84.50;;;1.00;97.27;95632.19;4911949;28;20043;-68
2021/11/21 07:05:22;;;;;;;14.63;9.35;;;3.10;84.20;;;0.99;96.68;95628.78;4911902;28;20534;-68
2021/11/21 07:07:48;;;;;;;13.70;8.48;;;3.10;84.30;;;1.00;96.99;95622.66;4911809;29;20568;-67
2021/11/21 07:10:15;;;;;;;20.10;8.55;;;3.10;84.00;;;1.05;96.91;95627.41;4911669;29;20044;-68
2021/11/21 07:12:41;;;;;;;11.75;8.63;;;3.10;83.90;;;1.03;96.27;95621.53;4896489;29;20523;-68
2021/11/21 07:15:07;;;;;;;18.00;9.27;;;3.10;83.60;;;1.03;96.21;95627.53;4893423;29;20041;-67
2021/11/21 07:17:33;;;;;;;13.45;9.30;;;3.10;83.30;;;1.04;96.58;95624.00;4892107;28;20040;-68
2021/11/21 07:19:59;;;;;;;12.40;8.23;;;3.10;83.70;;;1.07;96.00;95623.69;4893689;29;20036;-67
2021/11/21 07:22:24;;;;;;;10.35;7.82;;;3.10;83.50;;;1.08;96.19;95625.34;4919375;29;20036;-67
2021/11/21 07:24:50;;;;;;;12.25;9.13;;;3.10;82.80;;;1.09;96.43;95626.97;4895014;29;20120;-67
2021/11/21 07:27:16;;;;;;;12.63;9.07;;;3.10;83.20;;;1.09;95.29;95621.78;4902193;29;20081;-70
2021/11/21 07:29:41;;;;;;;15.95;10.82;;;3.10;83.30;;;1.11;95.22;95629.41;4912024;28;20142;-69
2021/11/21 07:32:08;;;;;;;21.05;13.13;;;3.00;82.90;;;1.11;95.77;95621.66;4914268;29;20096;-69
2021/11/21 07:34:33;;;;;;;15.32;10.35;;;3.00;82.70;;;1.10;94.91;95623.41;4916335;28;20032;-70
2021/11/21 07:36:59;;;;;;;13.85;9.27;;;3.10;82.80;;;1.07;95.32;95621.13;4915523;29;20115;-70
2021/11/21 07:39:25;;;;;;;13.45;8.98;;;3.10;82.70;;;1.06;94.91;95624.66;4904182;28;20087;-70
2021/11/21 07:41:52;;;;;;;12.57;8.60;;;3.10;82.80;;;1.08;94.69;95616.75;4915525;29;20100;-70
2021/11/21 07:44:18;;;;;;;12.10;8.68;;;3.10;82.70;;;1.06;95.22;95619.47;4915459;29;20520;-67
2021/11/21 07:46:43;;;;;;;19.65;9.55;;;3.10;82.60;;;1.07;95.31;95613.34;4899936;29;20051;-69
2021/11/21 07:49:09;;;;;;;17.05;9.73;;;3.20;82.50;;;1.06;95.35;95616.91;4899377;29;20047;-68
2021/11/21 07:51:35;;;;;;;15.48;9.63;;;3.00;82.90;;;1.04;95.33;95608.47;4915170;28;20728;-69
2021/11/21 07:54:01;;;;;;;13.48;9.40;;;3.00;83.20;;;1.02;94.96;95605.19;4899316;29;20504;-69
2021/11/21 07:56:26;;;;;;;12.15;9.23;;;3.10;83.00;;;1.10;95.43;95613.06;4914960;29;20208;-69
2021/11/21 07:58:52;;;;;;;25.77;9.65;;;3.20;83.10;;;1.09;95.56;95606.25;4915300;28;20533;-67
2021/11/21 08:01:18;;;;;;;15.73;10.45;;;3.10;82.80;;;1.07;94.80;95613.34;4922704;28;20463;-67
2021/11/21 08:03:44;;;;;;;22.30;11.35;;;3.10;83.10;;;1.06;95.61;95609.13;4915268;29;20532;-67
2021/11/21 08:06:09;;;;;;;21.73;14.10;;;3.10;83.20;;;1.10;95.56;95612.25;4899274;29;20036;-67
2021/11/21 08:08:35;;;;;;;25.95;10.15;;;3.20;83.20;;;1.12;95.74;95595.59;4915045;29;20124;-67
2021/11/21 08:11:01;;;;;;;23.15;16.63;;;3.30;82.40;;;1.13;95.32;95597.25;4898652;29;20047;-68
2021/11/21 08:13:27;;;;;;;19.58;9.77;;;3.30;83.10;;;1.20;96.27;95598.31;4914544;28;20040;-70
2021/11/21 08:15:54;;;;;;;30.45;10.55;;;3.30;82.60;;;1.21;96.27;95597.34;4915759;28;20040;-66
2021/11/21 08:18:20;;;;;;;15.60;10.65;;;3.30;82.50;;;1.25;95.84;95600.47;4899422;29;20155;-66
2021/11/21 08:20:45;;;;;;;18.80;10.57;;;3.40;82.60;;;1.29;95.14;95603.56;4914930;29;20455;-66
2021/11/21 08:23:11;;;;;;;29.75;9.80;;;3.40;82.30;;;1.30;95.17;95597.44;4915017;29;20578;-66
2021/11/21 08:25:37;;;;;;;19.42;9.45;;;3.30;82.20;;;1.35;95.21;95605.59;4919263;28;20044;-68
2021/11/21 08:28:04;;;;;;;13.77;9.45;;;3.50;81.90;;;1.37;94.62;95601.09;4916645;29;20048;-68
2021/11/21 08:30:32;;;;;;;15.13;9.00;;;3.50;81.90;;;1.34;95.18;95594.41;4913670;29;20035;-69
2021/11/21 08:32:58;;;;;;;15.05;9.35;;;3.40;82.30;;;1.39;94.99;95592.22;4899099;29;20024;-68
2021/11/21 08:35:24;;;;;;;19.90;10.68;;;3.50;82.30;;;1.46;95.98;95593.25;4897805;28;20539;-68
2021/11/21 08:37:50;;;;;;;13.85;9.77;;;3.70;82.10;;;1.53;95.70;95588.28;4927173;28;20042;-70
2021/11/21 08:40:15;;;;;;;13.70;10.13;;;3.80;82.00;;;1.60;95.15;95578.19;4921696;28;20047;-69
2021/11/21 08:42:41;;;;;;;14.70;11.13;;;4.00;81.60;;;1.72;95.27;95587.38;4887317;29;20055;-69
2021/11/21 08:45:08;;;;;;;11.77;9.23;;;4.20;81.00;;;1.79;94.54;95583.22;4914463;29;20063;-69
2021/11/21 08:47:35;;;;;;;14.13;9.65;;;4.10;80.50;;;1.80;94.78;95570.09;4913394;28;20551;-69
2021/11/21 08:50:05;;;;;;;12.13;9.25;;;4.10;80.60;;;1.86;94.37;95575.69;4883678;29;20499;-69
2021/11/21 08:52:31;;;;;;;11.77;8.88;;;4.10;80.10;;;1.87;94.70;95574.72;4883359;29;20515;-69
2021/11/21 08:54:57;;;;;;;12.18;9.18;;;4.10;80.60;;;1.92;94.32;95577.66;4883074;29;20043;-68
2021/11/21 08:57:22;;;;;;;11.43;9.30;;;4.20;80.20;;;1.96;94.01;95584.19;4894465;28;20055;-69
2021/11/21 08:59:48;;;;;;;12.93;9.27;;;4.20;79.90;;;2.02;93.91;95578.41;4925635;28;20028;-68
2021/11/21 09:02:14;;;;;;;13.32;9.02;;;4.50;80.00;;;2.14;94.08;95577.22;4902096;29;20056;-68
2021/11/21 09:04:39;;;;;;;12.27;8.82;;;4.70;79.50;;;2.27;94.00;95582.84;4898685;29;20057;-68
2021/11/21 09:07:05;;;;;;;11.32;8.90;;;4.90;78.50;;;2.36;93.89;95584.53;4898689;29;20036;-68
2021/11/21 09:09:31;;;;;;;19.73;14.63;;;4.80;79.30;;;2.46;93.77;95582.63;4913544;28;20119;-68
2021/11/21 09:11:57;;;;;;;15.02;11.18;;;4.90;78.80;;;2.52;93.80;95576.06;4893023;29;20032;-68
2021/11/21 09:14:25;;;;;;;11.27;9.40;;;4.80;78.90;;;2.63;93.31;95574.97;4910316;29;20040;-68
2021/11/21 09:16:51;;;;;;;11.80;9.38;;;5.00;78.60;;;2.67;93.13;95574.50;4913332;29;20032;-68
2021/11/21 09:19:17;;;;;;;11.13;9.25;;;5.00;78.60;;;2.75;92.94;95576.34;4898199;29;20576;-69
2021/11/21 09:21:42;;;;;;;11.25;9.30;;;5.10;78.30;;;2.82;92.63;95573.94;4900469;28;20064;-70
2021/11/21 09:24:08;;;;;;;11.05;8.77;;;5.20;78.10;;;2.88;92.49;95581.94;4900207;29;20464;-70
2021/11/21 09:26:34;;;;;;;10.68;9.00;;;5.30;78.00;;;2.95;92.59;95582.97;4894980;29;20416;-69
2021/11/21 09:29:00;;;;;;;11.73;9.43;;;5.30;77.90;;;2.98;92.15;95576.63;4920778;29;20036;-70
2021/11/21 09:31:25;;;;;;;13.00;10.90;;;5.30;77.90;;;3.06;91.94;95581.88;4916250;28;20060;-71
2021/11/21 09:33:51;;;;;;;13.40;11.05;;;5.40;77.80;;;3.08;92.43;95577.31;4900217;29;20032;-71
2021/11/21 09:36:17;;;;;;;21.10;15.65;;;5.40;78.20;;;3.11;91.79;95568.41;4902758;29;20091;-70
2021/11/21 09:38:44;;;;;;;16.73;13.30;;;5.40;78.30;;;3.18;92.20;95572.84;4916588;29;20082;-70
2021/11/21 09:41:10;;;;;;;16.15;11.93;;;5.60;78.00;;;3.28;92.10;95568.31;4879670;29;20032;-70
2021/11/21 09:43:38;;;;;;;12.63;10.07;;;5.90;77.50;;;3.37;91.89;95566.56;4902973;28;20032;-69
2021/11/21 09:46:06;;;;;;;13.52;10.70;;;5.80;77.50;;;3.43;92.59;95560.75;4904925;29;20043;-69
2021/11/21 09:48:32;;;;;;;13.15;10.65;;;5.70;78.30;;;3.51;91.78;95558.16;4904240;29;20580;-70
2021/11/21 09:50:58;;;;;;;12.70;11.38;;;5.80;77.80;;;3.62;91.75;95555.28;4905432;29;20039;-72
2021/11/21 09:53:24;;;;;;;13.32;11.32;;;6.00;77.80;;;3.74;91.77;95541.94;4904293;28;20036;-71
2021/11/21 09:55:49;;;;;;;13.55;10.98;;;6.10;77.20;;;3.81;91.75;95553.34;4918514;29;20044;-70
2021/11/21 09:58:15;;;;;;;14.50;10.98;;;6.30;77.10;;;3.91;91.74;95554.81;4904506;29;20052;-70
2021/11/21 10:00:41;;;;;;;15.38;12.77;;;6.40;76.50;;;3.99;90.91;95551.41;4903241;29;20040;-68
2021/11/21 10:03:09;;;;;;;13.98;11.95;;;6.50;76.50;;;4.07;90.70;95559.22;4917630;29;20083;-67
2021/11/21 10:05:39;;;;;;;13.82;11.20;;;6.40;76.10;;;4.08;89.96;95550.44;4895095;28;20028;-67
2021/11/21 10:08:13;;;;;;;14.05;11.93;;;6.30;75.60;;;4.03;89.27;95557.09;4900754;29;20039;-67
2021/11/21 10:10:45;;;;;;;16.27;13.55;;;6.10;76.90;;;4.01;89.54;95546.84;4897705;29;20449;-68
2021/11/21 10:13:41;;;;;;;17.65;12.88;;;6.00;77.10;;;4.00;88.74;95547.81;4897549;29;20096;-68
2021/11/21 10:16:27;;;;;;;17.58;13.68;;;5.90;77.60;;;4.02;88.99;95556.28;4898994;29;20546;-67
2021/11/21 10:18:55;;;;;;;15.68;13.55;;;6.20;77.00;;;4.04;89.40;95548.31;4934847;28;20031;-67